YSNW/NOA METAR and TAF weather

Enter ICAO airport designator
Station Type Date Time Source
YSNW METAR 2019/08/23 15:00 UTC NOAA

YSNW 231500Z AUTO 32011KT 9999 // NCD 10/M02 Q1019


Station Type Date Time Source
YSNW Decoded METAR 2019/08/23 15:00 UTC NOAA

Station name not available
Aug 23, 2019 - 11:00 AM EDT / 2019.08.23 1500 UTC
Wind: from the NW (320 degrees) at 13 MPH (11 KT):0
Visibility: greater than 7 mile(s):0
Temperature: 50 F (10 C)
Dew Point: 28 F (-2 C)
Relative Humidity: 42%
Pressure (altimeter): 30.09 in. Hg (1019 hPa)
ob: YSNW 231500Z AUTO 32011KT 9999 // NCD 10/M02 Q1019
cycle: 15

Station Type Date Time Source
YSNW TAF UTC NOAA

Error!

Example: see airport list